sensor_id;sensor_type;location;lat;lon;timestamp;pressure;altitude;pressure_sealevel;temperature;humidity
53089;BME280;38968;47.696;17.540;2023-04-24T00:00:40;9935911;;;17.85;51.74414
53089;BME280;38968;47.696;17.540;2023-04-24T00:05:39;9934888;;;17.79;51.66699
53089;BME280;38968;47.696;17.540;2023-04-24T00:10:39;9934374;;;17.76;51.82617
53089;BME280;38968;47.696;17.540;2023-04-24T00:15:39;9933927;;;17.6;51.85547
53089;BME280;38968;47.696;17.540;2023-04-24T00:20:39;9933048;;;17.6;50.91992
53089;BME280;38968;47.696;17.540;2023-04-24T00:25:39;9931984;;;17.46;50.49512
53089;BME280;38968;47.696;17.540;2023-04-24T00:30:39;9930602;;;17.41;49.60254
53089;BME280;38968;47.696;17.540;2023-04-24T00:35:39;9929843;;;17.34;48.17188
53089;BME280;38968;47.696;17.540;2023-04-24T00:40:39;9928845;;;17.24;47.96191
53089;BME280;38968;47.696;17.540;2023-04-24T00:45:39;9929542;;;17.25;47.00488
53089;BME280;38968;47.696;17.540;2023-04-24T00:50:39;9928945;;;17.05;47.34668
53089;BME280;38968;47.696;17.540;2023-04-24T00:55:39;9928444;;;17.17;46.75
53089;BME280;38968;47.696;17.540;2023-04-24T01:00:39;9928273;;;17.16;46.5166
53089;BME280;38968;47.696;17.540;2023-04-24T01:05:39;9927455;;;17.04;46.69141
53089;BME280;38968;47.696;17.540;2023-04-24T01:10:40;9928205;;;17.12;46.6416
53089;BME280;38968;47.696;17.540;2023-04-24T01:15:39;9927616;;;17.07;46.30859
53089;BME280;38968;47.696;17.540;2023-04-24T01:20:40;9926877;;;17.14;46.39746
53089;BME280;38968;47.696;17.540;2023-04-24T01:25:39;9926585;;;17.18;46.7998
53089;BME280;38968;47.696;17.540;2023-04-24T01:30:39;9926628;;;17.11;46.63867
53089;BME280;38968;47.696;17.540;2023-04-24T01:35:39;9926823;;;17.07;46.40234
53089;BME280;38968;47.696;17.540;2023-04-24T01:40:39;9926117;;;17.23;46.23242
53089;BME280;38968;47.696;17.540;2023-04-24T01:45:39;9926509;;;17.16;46.49316
53089;BME280;38968;47.696;17.540;2023-04-24T01:50:39;9926187;;;17.27;45.94336
53089;BME280;38968;47.696;17.540;2023-04-24T01:55:39;9925833;;;16.95;46.91504
53089;BME280;38968;47.696;17.540;2023-04-24T02:00:39;9924889;;;17.06;46.7168
53089;BME280;38968;47.696;17.540;2023-04-24T02:05:39;9924625;;;17.06;46.79883
53089;BME280;38968;47.696;17.540;2023-04-24T02:10:39;9923754;;;16.89;47.49121
53089;BME280;38968;47.696;17.540;2023-04-24T02:15:39;9923194;;;17.11;46.67383
53089;BME280;38968;47.696;17.540;2023-04-24T02:20:39;9922920;;;17.12;46.60645
53089;BME280;38968;47.696;17.540;2023-04-24T02:25:39;9922400;;;16.95;47.65039
53089;BME280;38968;47.696;17.540;2023-04-24T02:30:39;9922128;;;17.12;47.15527
53089;BME280;38968;47.696;17.540;2023-04-24T02:35:39;9921684;;;17.13;46.98047
53089;BME280;38968;47.696;17.540;2023-04-24T02:40:39;9920755;;;16.9;47.99414
53089;BME280;38968;47.696;17.540;2023-04-24T02:45:39;9920934;;;16.89;48.70508
53089;BME280;38968;47.696;17.540;2023-04-24T02:50:39;9920833;;;17.07;48.16504
53089;BME280;38968;47.696;17.540;2023-04-24T02:55:39;9920008;;;16.98;48.54004
53089;BME280;38968;47.696;17.540;2023-04-24T03:00:39;9919580;;;16.95;48.62988
53089;BME280;38968;47.696;17.540;2023-04-24T03:05:39;9918943;;;17.15;48.0918
53089;BME280;38968;47.696;17.540;2023-04-24T03:10:39;9918659;;;17.18;48.44629
53089;BME280;38968;47.696;17.540;2023-04-24T03:15:39;9917612;;;17.32;47.52637
53089;BME280;38968;47.696;17.540;2023-04-24T03:20:39;9917945;;;17.04;48.5127
53089;BME280;38968;47.696;17.540;2023-04-24T03:25:38;9918116;;;17.05;48.54883
53089;BME280;38968;47.696;17.540;2023-04-24T03:30:39;9917188;;;17.14;48.35938
53089;BME280;38968;47.696;17.540;2023-04-24T03:35:39;9917477;;;17.09;48.29688
53089;BME280;38968;47.696;17.540;2023-04-24T03:40:39;9918330;;;17.15;48.29004
53089;BME280;38968;47.696;17.540;2023-04-24T03:45:39;9917094;;;17.15;48.08008
53089;BME280;38968;47.696;17.540;2023-04-24T03:50:39;9917927;;;17.07;47.75684
53089;BME280;38968;47.696;17.540;2023-04-24T03:55:39;9917094;;;17.15;47.58984
53089;BME280;38968;47.696;17.540;2023-04-24T04:00:39;9917442;;;17.16;47.64941
53089;BME280;38968;47.696;17.540;2023-04-24T04:05:39;9918184;;;17.09;47.79395
53089;BME280;38968;47.696;17.540;2023-04-24T04:10:39;9918678;;;17.15;47.35645
53089;BME280;38968;47.696;17.540;2023-04-24T04:15:39;9919077;;;17.06;47.42871
53089;BME280;38968;47.696;17.540;2023-04-24T04:20:39;9919675;;;17.1;47.64258
53089;BME280;38968;47.696;17.540;2023-04-24T04:25:39;9920034;;;17.09;47.51367
53089;BME280;38968;47.696;17.540;2023-04-24T04:30:39;9920588;;;17.04;47.48535
53089;BME280;38968;47.696;17.540;2023-04-24T04:35:39;9921116;;;17.04;47.70703
53089;BME280;38968;47.696;17.540;2023-04-24T04:40:39;9921540;;;17.07;47.48828
53089;BME280;38968;47.696;17.540;2023-04-24T04:45:39;9920773;;;16.87;47.90918
53089;BME280;38968;47.696;17.540;2023-04-24T04:50:39;9920730;;;16.94;47.91699
53089;BME280;38968;47.696;17.540;2023-04-24T04:55:39;9921130;;;17.01;47.41113
53089;BME280;38968;47.696;17.540;2023-04-24T05:00:39;9921225;;;17;47.67871
53089;BME280;38968;47.696;17.540;2023-04-24T05:05:39;9921973;;;16.59;48.24023
53089;BME280;38968;47.696;17.540;2023-04-24T05:10:39;9921967;;;17.09;47.61914
53089;BME280;38968;47.696;17.540;2023-04-24T05:15:39;9921981;;;16.75;48.83008
53089;BME280;38968;47.696;17.540;2023-04-24T05:20:39;9921934;;;17.16;48.91016
53089;BME280;38968;47.696;17.540;2023-04-24T05:25:39;9922256;;;17.05;50.28613
53089;BME280;38968;47.696;17.540;2023-04-24T05:30:39;9922973;;;16.7;51.51563
53089;BME280;38968;47.696;17.540;2023-04-24T05:35:40;9923584;;;16.54;52.3252
53089;BME280;38968;47.696;17.540;2023-04-24T05:40:39;9923902;;;17.1;51.64453
53089;BME280;38968;47.696;17.540;2023-04-24T05:45:39;9925215;;;17.27;51.94434
53089;BME280;38968;47.696;17.540;2023-04-24T05:50:39;9924617;;;17.4;51.90137
53089;BME280;38968;47.696;17.540;2023-04-24T05:55:39;9924573;;;17;52.62305
53089;BME280;38968;47.696;17.540;2023-04-24T06:00:39;9924693;;;17.42;52.5332
53089;BME280;38968;47.696;17.540;2023-04-24T06:05:39;9924319;;;17.3;52.70508
53089;BME280;38968;47.696;17.540;2023-04-24T06:10:39;9923978;;;17.44;53.35156
53089;BME280;38968;47.696;17.540;2023-04-24T06:15:39;9924770;;;17.75;52.28125
53089;BME280;38968;47.696;17.540;2023-04-24T06:20:39;9923420;;;18.1;52.1582
53089;BME280;38968;47.696;17.540;2023-04-24T06:25:39;9924030;;;18.26;51.55859
53089;BME280;38968;47.696;17.540;2023-04-24T06:30:39;9923966;;;18.07;52.59961
53089;BME280;38968;47.696;17.540;2023-04-24T06:35:40;9924606;;;18.33;52.04492
53089;BME280;38968;47.696;17.540;2023-04-24T06:40:39;9924659;;;18.82;51.7168
53089;BME280;38968;47.696;17.540;2023-04-24T06:45:39;9924716;;;18.87;50.8916
53089;BME280;38968;47.696;17.540;2023-04-24T06:50:39;9924565;;;18.98;50.31738
53089;BME280;38968;47.696;17.540;2023-04-24T06:55:39;9923659;;;18.29;51.67871
53089;BME280;38968;47.696;17.540;2023-04-24T07:00:39;9924534;;;18.74;50.72363
53089;BME280;38968;47.696;17.540;2023-04-24T07:05:39;9924248;;;18.48;51.87695
53089;BME280;38968;47.696;17.540;2023-04-24T07:10:39;9923862;;;19.11;50.46191
53089;BME280;38968;47.696;17.540;2023-04-24T07:15:39;9923733;;;19.72;49.7207
53089;BME280;38968;47.696;17.540;2023-04-24T07:20:39;9924698;;;19.73;48.56055
53089;BME280;38968;47.696;17.540;2023-04-24T07:25:39;9924392;;;19.79;48.33203
53089;BME280;38968;47.696;17.540;2023-04-24T07:30:40;9924948;;;19.62;48.48926
53089;BME280;38968;47.696;17.540;2023-04-24T07:35:39;9924611;;;19.99;48.56641
53089;BME280;38968;47.696;17.540;2023-04-24T07:40:39;9925172;;;19.95;48.39648
53089;BME280;38968;47.696;17.540;2023-04-24T07:45:39;9926097;;;20.02;47.38184
53089;BME280;38968;47.696;17.540;2023-04-24T07:50:39;9926266;;;20.03;47.87598
53089;BME280;38968;47.696;17.540;2023-04-24T07:55:39;9926081;;;20.31;47.10547
53089;BME280;38968;47.696;17.540;2023-04-24T08:00:39;9925267;;;20.72;46.43164
53089;BME280;38968;47.696;17.540;2023-04-24T08:05:39;9925447;;;20.84;46.16211
53089;BME280;38968;47.696;17.540;2023-04-24T08:10:39;9926084;;;20.69;47.32324
53089;BME280;38968;47.696;17.540;2023-04-24T08:15:39;9927850;;;20.83;46.67871
53089;BME280;38968;47.696;17.540;2023-04-24T08:20:40;9926677;;;20.98;46.17676
53089;BME280;38968;47.696;17.540;2023-04-24T08:25:39;9925909;;;21.19;45.78613
53089;BME280;38968;47.696;17.540;2023-04-24T08:30:39;9927178;;;20.51;46.55176
53089;BME280;38968;47.696;17.540;2023-04-24T08:35:39;9927307;;;20.84;46.16211
53089;BME280;38968;47.696;17.540;2023-04-24T08:40:39;9927112;;;20.99;46.1543
53089;BME280;38968;47.696;17.540;2023-04-24T08:45:40;9927149;;;20.82;46.48926
53089;BME280;38968;47.696;17.540;2023-04-24T08:50:40;9927770;;;20.3;47.42383
53089;BME280;38968;47.696;17.540;2023-04-24T08:55:40;9928467;;;20.7;47.78418
53089;BME280;38968;47.696;17.540;2023-04-24T09:00:39;9928907;;;20.44;47.41504
53089;BME280;38968;47.696;17.540;2023-04-24T09:05:44;9928117;;;20.7;46.65332
53089;BME280;38968;47.696;17.540;2023-04-24T09:10:39;9928275;;;20.47;47.84082
53089;BME280;38968;47.696;17.540;2023-04-24T09:15:40;9928314;;;20.41;47.14063
53089;BME280;38968;47.696;17.540;2023-04-24T09:25:39;9929339;;;20.2;48.63477
53089;BME280;38968;47.696;17.540;2023-04-24T09:30:39;9928376;;;20.44;47.09766
53089;BME280;38968;47.696;17.540;2023-04-24T09:35:48;9928818;;;20.71;46.30078
53089;BME280;38968;47.696;17.540;2023-04-24T09:40:39;9928948;;;20.38;47.02051
53089;BME280;38968;47.696;17.540;2023-04-24T09:45:40;9929941;;;20.09;47.49512
53089;BME280;38968;47.696;17.540;2023-04-24T09:50:39;9930365;;;19.99;47.4375
53089;BME280;38968;47.696;17.540;2023-04-24T09:55:41;9930118;;;19.96;47.92676
53089;BME280;38968;47.696;17.540;2023-04-24T10:00:39;9931153;;;19.86;47.64746
53089;BME280;38968;47.696;17.540;2023-04-24T10:05:39;9932166;;;19.53;49.20703
53089;BME280;38968;47.696;17.540;2023-04-24T10:10:43;9931887;;;19.83;49.25195
53089;BME280;38968;47.696;17.540;2023-04-24T10:15:40;9931961;;;19.85;49.43066
53089;BME280;38968;47.696;17.540;2023-04-24T10:20:40;9932186;;;19.64;48.5498
53089;BME280;38968;47.696;17.540;2023-04-24T10:25:39;9932120;;;19.46;48.13184
53089;BME280;38968;47.696;17.540;2023-04-24T10:30:40;9932555;;;19.61;47.57324
53089;BME280;38968;47.696;17.540;2023-04-24T10:35:44;9933362;;;19.31;47.88086
53089;BME280;38968;47.696;17.540;2023-04-24T10:40:39;9933199;;;19.43;47.31934
53089;BME280;38968;47.696;17.540;2023-04-24T10:45:40;9934203;;;19.38;48.00586
53089;BME280;38968;47.696;17.540;2023-04-24T10:50:46;9934403;;;19.2;48.41992
53089;BME280;38968;47.696;17.540;2023-04-24T10:55:47;9934922;;;18.79;50.20313
53089;BME280;38968;47.696;17.540;2023-04-24T11:00:40;9933967;;;18.9;49.95801
53089;BME280;38968;47.696;17.540;2023-04-24T11:05:59;9934269;;;18.7;50.6377
53089;BME280;38968;47.696;17.540;2023-04-24T11:10:40;9934706;;;18.55;50.04688
53089;BME280;38968;47.696;17.540;2023-04-24T11:15:41;9935001;;;18.21;49.7041
53089;BME280;38968;47.696;17.540;2023-04-24T11:20:43;9935197;;;18.17;49.98047
53089;BME280;38968;47.696;17.540;2023-04-24T11:25:39;9935641;;;18.17;50.13184
53089;BME280;38968;47.696;17.540;2023-04-24T11:30:40;9936156;;;18.04;51.12305
53089;BME280;38968;47.696;17.540;2023-04-24T11:35:42;9936564;;;18.09;51.28223
53089;BME280;38968;47.696;17.540;2023-04-24T11:40:40;9935981;;;18.19;51.50293
53089;BME280;38968;47.696;17.540;2023-04-24T11:45:47;9935831;;;17.99;52.69531
53089;BME280;38968;47.696;17.540;2023-04-24T11:50:39;9936905;;;17.96;52.87793
53089;BME280;38968;47.696;17.540;2023-04-24T11:55:39;9936336;;;17.87;52.63477
53089;BME280;38968;47.696;17.540;2023-04-24T12:00:40;9937518;;;17.65;52.5957
53089;BME280;38968;47.696;17.540;2023-04-24T12:05:40;9936980;;;17.66;53.01758
53089;BME280;38968;47.696;17.540;2023-04-24T12:10:39;9937604;;;17.49;52.97363
53089;BME280;38968;47.696;17.540;2023-04-24T12:15:40;9936823;;;17.79;52.30859
53089;BME280;38968;47.696;17.540;2023-04-24T12:20:40;9936964;;;17.69;53.27832
53089;BME280;38968;47.696;17.540;2023-04-24T12:25:39;9936036;;;17.78;51.73633
53089;BME280;38968;47.696;17.540;2023-04-24T12:30:43;9936834;;;17.6;52.2168
53089;BME280;38968;47.696;17.540;2023-04-24T12:35:40;9936395;;;17.77;52.38867
53089;BME280;38968;47.696;17.540;2023-04-24T12:40:40;9937503;;;17.68;53.13574
53089;BME280;38968;47.696;17.540;2023-04-24T12:45:39;9937188;;;17.61;54.24805
53089;BME280;38968;47.696;17.540;2023-04-24T12:50:39;9936880;;;17.69;53.46387
53089;BME280;38968;47.696;17.540;2023-04-24T12:55:39;9936615;;;17.69;53.87207
53089;BME280;38968;47.696;17.540;2023-04-24T13:00:39;9936445;;;17.68;54.19727
53089;BME280;38968;47.696;17.540;2023-04-24T13:05:39;9935602;;;17.77;53.52051
53089;BME280;38968;47.696;17.540;2023-04-24T13:10:39;9936181;;;17.68;53.41602
53089;BME280;38968;47.696;17.540;2023-04-24T13:15:39;9935544;;;17.23;53.95703
53089;BME280;38968;47.696;17.540;2023-04-24T13:20:39;9934925;;;17.4;53.66309
53089;BME280;38968;47.696;17.540;2023-04-24T13:25:39;9934908;;;17.58;53.19531
53089;BME280;38968;47.696;17.540;2023-04-24T13:30:39;9933586;;;17.58;53.5918
53089;BME280;38968;47.696;17.540;2023-04-24T13:35:39;9934140;;;17.54;53.7373
53089;BME280;38968;47.696;17.540;2023-04-24T13:40:39;9934184;;;17.62;53.75977
53089;BME280;38968;47.696;17.540;2023-04-24T13:45:39;9934319;;;17.53;53.62012
53089;BME280;38968;47.696;17.540;2023-04-24T13:50:39;9934081;;;17.65;53.92578
53089;BME280;38968;47.696;17.540;2023-04-24T13:55:39;9934608;;;17.49;54.30273
53089;BME280;38968;47.696;17.540;2023-04-24T14:00:39;9934420;;;17.35;55.125
53089;BME280;38968;47.696;17.540;2023-04-24T14:05:40;9933848;;;17.43;55.27441
53089;BME280;38968;47.696;17.540;2023-04-24T14:10:39;9933433;;;17.39;55.4209
53089;BME280;38968;47.696;17.540;2023-04-24T14:15:39;9933230;;;17.44;56.20801
53089;BME280;38968;47.696;17.540;2023-04-24T14:20:39;9932869;;;17.29;57.4248
53089;BME280;38968;47.696;17.540;2023-04-24T14:25:39;9932948;;;17.62;56.44141
53089;BME280;38968;47.696;17.540;2023-04-24T14:30:39;9931891;;;17.62;56.36035
53089;BME280;38968;47.696;17.540;2023-04-24T14:35:40;9931824;;;17.75;55.95703
53089;BME280;38968;47.696;17.540;2023-04-24T14:40:40;9931667;;;17.71;56.31152
53089;BME280;38968;47.696;17.540;2023-04-24T14:45:39;9931745;;;17.73;55.10254
53089;BME280;38968;47.696;17.540;2023-04-24T14:50:39;9931925;;;17.56;55.61914
53089;BME280;38968;47.696;17.540;2023-04-24T14:55:39;9931984;;;17.46;56.49023
53089;BME280;38968;47.696;17.540;2023-04-24T15:00:39;9932053;;;17.49;56.7627
53089;BME280;38968;47.696;17.540;2023-04-24T15:05:39;9933405;;;17.43;57.15137
53089;BME280;38968;47.696;17.540;2023-04-24T15:10:39;9932614;;;17.59;57.47559
53089;BME280;38968;47.696;17.540;2023-04-24T15:15:39;9932527;;;17.43;57.66406
53089;BME280;38968;47.696;17.540;2023-04-24T15:20:39;9932733;;;17.53;56.95508
53089;BME280;38968;47.696;17.540;2023-04-24T15:25:39;9933023;;;17.33;57.27832
53089;BME280;38968;47.696;17.540;2023-04-24T15:30:39;9932544;;;17.24;56.39355
53089;BME280;38968;47.696;17.540;2023-04-24T15:35:40;9932773;;;16.81;56.83887
53089;BME280;38968;47.696;17.540;2023-04-24T15:40:39;9932717;;;16.92;56.88672
53089;BME280;38968;47.696;17.540;2023-04-24T15:45:39;9933381;;;16.48;58.26074
53089;BME280;38968;47.696;17.540;2023-04-24T15:50:39;9932827;;;16.88;56.18457
53089;BME280;38968;47.696;17.540;2023-04-24T15:55:39;9933580;;;16.78;56.66016
53089;BME280;38968;47.696;17.540;2023-04-24T16:00:40;9933877;;;16.54;57.99023
53089;BME280;38968;47.696;17.540;2023-04-24T16:05:39;9934053;;;16.54;57.15234
53089;BME280;38968;47.696;17.540;2023-04-24T16:10:39;9934030;;;16.59;56.57715
53089;BME280;38968;47.696;17.540;2023-04-24T16:15:39;9934262;;;16.65;55.97949
53089;BME280;38968;47.696;17.540;2023-04-24T16:20:39;9934553;;;16.43;55.63867
53089;BME280;38968;47.696;17.540;2023-04-24T16:25:39;9935809;;;16.55;56.25879
53089;BME280;38968;47.696;17.540;2023-04-24T16:30:40;9936133;;;16.6;56.17285
53089;BME280;38968;47.696;17.540;2023-04-24T16:35:39;9935622;;;16.4;56.10059
53089;BME280;38968;47.696;17.540;2023-04-24T16:40:39;9936343;;;16.53;55.66406
53089;BME280;38968;47.696;17.540;2023-04-24T16:45:39;9935506;;;16.45;56.22363
53089;BME280;38968;47.696;17.540;2023-04-24T16:50:39;9936405;;;16.59;56.26367
53089;BME280;38968;47.696;17.540;2023-04-24T16:55:40;9936664;;;16.43;55.9873
53089;BME280;38968;47.696;17.540;2023-04-24T17:00:39;9936888;;;16.33;56.75391
53089;BME280;38968;47.696;17.540;2023-04-24T17:05:40;9937986;;;16.24;57.37988
53089;BME280;38968;47.696;17.540;2023-04-24T17:10:39;9938423;;;16.25;57.56836
53089;BME280;38968;47.696;17.540;2023-04-24T17:15:41;9938291;;;16.34;57.32422
53089;BME280;38968;47.696;17.540;2023-04-24T17:20:40;9939544;;;16.11;58.71094
53089;BME280;38968;47.696;17.540;2023-04-24T17:25:39;9938829;;;15.96;60.0957
53089;BME280;38968;47.696;17.540;2023-04-24T17:30:40;9938208;;;15.97;60.08496
53089;BME280;38968;47.696;17.540;2023-04-24T17:35:39;9939476;;;16.08;60.56348
53089;BME280;38968;47.696;17.540;2023-04-24T17:40:40;9939893;;;16.12;60.26758
53089;BME280;38968;47.696;17.540;2023-04-24T17:45:40;9940429;;;16.1;60.8457
53089;BME280;38968;47.696;17.540;2023-04-24T17:50:41;9940470;;;16.2;60.65039
53089;BME280;38968;47.696;17.540;2023-04-24T17:55:40;9941347;;;16.2;60.43066
53089;BME280;38968;47.696;17.540;2023-04-24T18:00:39;9942097;;;16.11;61.1123
53089;BME280;38968;47.696;17.540;2023-04-24T18:05:39;9941707;;;15.82;62.62598
53089;BME280;38968;47.696;17.540;2023-04-24T18:10:39;9940950;;;15.55;63.7002
53089;BME280;38968;47.696;17.540;2023-04-24T18:15:40;9942080;;;15.38;63.42188
53089;BME280;38968;47.696;17.540;2023-04-24T18:20:39;9943375;;;15.24;62.5332
53089;BME280;38968;47.696;17.540;2023-04-24T18:25:40;9944448;;;15.19;62.5498
53089;BME280;38968;47.696;17.540;2023-04-24T18:30:39;9944303;;;14.92;63.49316
53089;BME280;38968;47.696;17.540;2023-04-24T18:35:39;9944997;;;14.94;63.68164
53089;BME280;38968;47.696;17.540;2023-04-24T18:40:39;9946369;;;15.21;62.65723
53089;BME280;38968;47.696;17.540;2023-04-24T18:45:39;9946745;;;15.16;61.79199
53089;BME280;38968;47.696;17.540;2023-04-24T18:50:39;9947113;;;14.71;63.33691
53089;BME280;38968;47.696;17.540;2023-04-24T18:55:39;9946691;;;14.87;62.19141
53089;BME280;38968;47.696;17.540;2023-04-24T19:00:40;9947573;;;14.66;63.06348
53089;BME280;38968;47.696;17.540;2023-04-24T19:05:40;9947541;;;14.94;61.96875
53089;BME280;38968;47.696;17.540;2023-04-24T19:10:40;9948795;;;14.67;63.08789
53089;BME280;38968;47.696;17.540;2023-04-24T19:15:40;9947903;;;14.71;63.26758
53089;BME280;38968;47.696;17.540;2023-04-24T19:20:40;9947607;;;14.99;62.49707
53089;BME280;38968;47.696;17.540;2023-04-24T19:25:40;9947588;;;14.83;63.61914
53089;BME280;38968;47.696;17.540;2023-04-24T19:30:39;9948760;;;14.96;62.34277
53089;BME280;38968;47.696;17.540;2023-04-24T19:35:39;9948838;;;14.78;63.12695
53089;BME280;38968;47.696;17.540;2023-04-24T19:40:40;9949772;;;14.85;62.81348
53089;BME280;38968;47.696;17.540;2023-04-24T19:45:40;9950605;;;14.75;62.60156
53089;BME280;38968;47.696;17.540;2023-04-24T19:50:39;9951395;;;14.75;62.41699
53089;BME280;38968;47.696;17.540;2023-04-24T19:55:39;9952039;;;14.67;62.70703
53089;BME280;38968;47.696;17.540;2023-04-24T20:00:39;9950901;;;14.67;62.85645
53089;BME280;38968;47.696;17.540;2023-04-24T20:05:39;9950670;;;14.59;63.7002
53089;BME280;38968;47.696;17.540;2023-04-24T20:10:39;9950019;;;14.68;64.18652
53089;BME280;38968;47.696;17.540;2023-04-24T20:15:40;9949612;;;14.81;64.19434
53089;BME280;38968;47.696;17.540;2023-04-24T20:20:39;9949634;;;14.77;63.74902
53089;BME280;38968;47.696;17.540;2023-04-24T20:25:39;9949620;;;14.8;63.68457
53089;BME280;38968;47.696;17.540;2023-04-24T20:30:39;9948908;;;14.82;63.95313
53089;BME280;38968;47.696;17.540;2023-04-24T20:35:40;9949066;;;14.65;64.1377
53089;BME280;38968;47.696;17.540;2023-04-24T20:40:39;9949045;;;14.7;64.55859
53089;BME280;38968;47.696;17.540;2023-04-24T20:45:39;9948667;;;14.77;64.62793
53089;BME280;38968;47.696;17.540;2023-04-24T20:50:39;9948448;;;14.87;64.63086
53089;BME280;38968;47.696;17.540;2023-04-24T20:55:40;9948864;;;14.92;64.32617
53089;BME280;38968;47.696;17.540;2023-04-24T21:00:39;9948700;;;15.1;63.84375
53089;BME280;38968;47.696;17.540;2023-04-24T21:05:39;9948122;;;15.02;63.94727
53089;BME280;38968;47.696;17.540;2023-04-24T21:10:39;9949148;;;15.08;63.74805
53089;BME280;38968;47.696;17.540;2023-04-24T21:15:39;9948385;;;15.02;63.66992
53089;BME280;38968;47.696;17.540;2023-04-24T21:20:39;9946917;;;14.96;63.78809
53089;BME280;38968;47.696;17.540;2023-04-24T21:25:39;9947488;;;14.86;63.75
53089;BME280;38968;47.696;17.540;2023-04-24T21:30:39;9949172;;;14.82;63.6875
53089;BME280;38968;47.696;17.540;2023-04-24T21:35:39;9948678;;;14.74;63.44531
53089;BME280;38968;47.696;17.540;2023-04-24T21:40:39;9948838;;;14.78;63.21973
53089;BME280;38968;47.696;17.540;2023-04-24T21:45:39;9948812;;;14.84;63.15918
53089;BME280;38968;47.696;17.540;2023-04-24T21:50:39;9948878;;;14.89;62.23047
53089;BME280;38968;47.696;17.540;2023-04-24T21:55:39;9949253;;;14.84;62.23242
53089;BME280;38968;47.696;17.540;2023-04-24T22:00:39;9948548;;;14.84;61.71387
53089;BME280;38968;47.696;17.540;2023-04-24T22:05:39;9948467;;;14.82;61.42188
53089;BME280;38968;47.696;17.540;2023-04-24T22:10:39;9948133;;;14.79;60.75684
53089;BME280;38968;47.696;17.540;2023-04-24T22:15:39;9947606;;;14.79;60.1084
53089;BME280;38968;47.696;17.540;2023-04-24T22:20:39;9948659;;;14.79;59.71582
53089;BME280;38968;47.696;17.540;2023-04-24T22:25:39;9947939;;;14.62;60.04004
53089;BME280;38968;47.696;17.540;2023-04-24T22:30:39;9948067;;;14.52;59.85254
53089;BME280;38968;47.696;17.540;2023-04-24T22:35:39;9947769;;;14.61;59.33398
53089;BME280;38968;47.696;17.540;2023-04-24T22:40:39;9947761;;;14.62;58.45605
53089;BME280;38968;47.696;17.540;2023-04-24T22:45:39;9948270;;;14.67;58.27637
53089;BME280;38968;47.696;17.540;2023-04-24T22:50:39;9947431;;;14.57;58.55273
53089;BME280;38968;47.696;17.540;2023-04-24T22:55:39;9948089;;;14.46;58.60742
53089;BME280;38968;47.696;17.540;2023-04-24T23:00:39;9948082;;;14.49;58.56445
53089;BME280;38968;47.696;17.540;2023-04-24T23:05:39;9947602;;;14.58;58.3584
53089;BME280;38968;47.696;17.540;2023-04-24T23:10:39;9947189;;;14.53;58.13086
53089;BME280;38968;47.696;17.540;2023-04-24T23:15:39;9946611;;;14.43;58.52246
53089;BME280;38968;47.696;17.540;2023-04-24T23:20:39;9946570;;;14.54;57.95801
53089;BME280;38968;47.696;17.540;2023-04-24T23:25:39;9946575;;;14.52;57.70313
53089;BME280;38968;47.696;17.540;2023-04-24T23:30:39;9946378;;;14.57;57.47656
53089;BME280;38968;47.696;17.540;2023-04-24T23:35:39;9946177;;;14.42;57.72363
53089;BME280;38968;47.696;17.540;2023-04-24T23:40:39;9946798;;;14.39;57.65039
53089;BME280;38968;47.696;17.540;2023-04-24T23:45:39;9946916;;;14.32;57.27148
53089;BME280;38968;47.696;17.540;2023-04-24T23:50:39;9947595;;;14.38;57.10449
53089;BME280;38968;47.696;17.540;2023-04-24T23:55:39;9947670;;;14.41;57.05273
